createdAt,value
2019-04-07T00:01:54.068Z,49.23
2019-04-07T00:04:23.741Z,48.48
2019-04-07T00:06:53.334Z,49.53
2019-04-07T00:09:25.839Z,48.75
2019-04-07T00:11:55.309Z,48.35
2019-04-07T00:14:24.842Z,48.55
2019-04-07T00:16:54.221Z,48.23
2019-04-07T00:19:24.775Z,48.58
2019-04-07T00:21:54.207Z,48.92
2019-04-07T00:24:25.672Z,48.95
2019-04-07T00:26:56.187Z,48.30
2019-04-07T00:29:25.620Z,49.93
2019-04-07T00:31:54.966Z,50.90
2019-04-07T00:34:24.792Z,48.68
2019-04-07T00:36:54.215Z,50.52
2019-04-07T00:39:23.672Z,49.40
2019-04-07T00:41:53.216Z,50.73
2019-04-07T00:44:22.620Z,48.50
2019-04-07T00:46:52.592Z,48.68
2019-04-07T00:49:22.090Z,48.68
2019-04-07T00:51:54.593Z,49.55
2019-04-07T00:54:23.968Z,49.00
2019-04-07T00:56:53.453Z,50.17
2019-04-07T00:59:24.264Z,49.48
2019-04-07T01:01:53.764Z,49.98
2019-04-07T01:04:23.284Z,49.18
2019-04-07T01:06:52.720Z,49.03
2019-04-07T01:09:22.390Z,49.85
2019-04-07T01:11:52.401Z,49.45
2019-04-07T01:14:22.443Z,48.90
2019-04-07T01:16:51.884Z,48.98
2019-04-07T01:19:21.329Z,49.10
2019-04-07T01:21:52.192Z,48.50
2019-04-07T01:24:21.995Z,48.80
2019-04-07T01:26:52.539Z,48.98
2019-04-07T01:29:23.326Z,48.00
2019-04-07T01:31:53.309Z,48.50
2019-04-07T01:34:24.079Z,47.90
2019-04-07T01:36:53.572Z,48.35
2019-04-07T01:39:23.145Z,48.55
2019-04-07T01:42:11.615Z,49.08
2019-04-07T01:45:02.655Z,47.17
2019-04-07T01:47:44.303Z,48.73
2019-04-07T01:50:37.297Z,47.00
2019-04-07T01:53:25.414Z,47.78
2019-04-07T01:56:18.374Z,47.65
2019-04-07T01:59:12.505Z,48.20
2019-04-07T02:02:20.194Z,48.78
2019-04-07T02:05:23.635Z,48.55
2019-04-07T02:08:16.653Z,48.20
2019-04-07T02:11:06.045Z,48.60
2019-04-07T02:13:54.746Z,48.15
2019-04-07T02:16:59.248Z,47.83
2019-04-07T02:19:41.706Z,48.40
2019-04-07T02:25:27.278Z,47.23
2019-04-07T02:28:17.660Z,49.48
2019-04-07T02:31:08.122Z,47.70
2019-04-07T02:33:42.541Z,48.00
2019-04-07T02:36:33.764Z,48.28
2019-04-07T02:39:27.087Z,48.08
2019-04-07T02:42:11.198Z,48.92
2019-04-07T02:45:02.257Z,48.28
2019-04-07T02:47:50.042Z,47.45
2019-04-07T02:50:24.374Z,49.35
2019-04-07T02:53:19.467Z,49.38
2019-04-07T02:55:58.356Z,49.13
2019-04-07T02:58:52.755Z,48.85
2019-04-07T03:01:41.448Z,48.45
2019-04-07T03:04:31.262Z,50.03
2019-04-07T03:07:13.975Z,50.10
2019-04-07T03:09:56.798Z,49.93
2019-04-07T03:12:54.726Z,50.25
2019-04-07T03:15:52.748Z,50.03
2019-04-07T03:18:35.761Z,50.90
2019-04-07T03:21:21.411Z,50.05
2019-04-07T03:23:59.703Z,51.08
2019-04-07T03:26:47.697Z,50.30
2019-04-07T03:29:29.770Z,50.33
2019-04-07T03:32:08.473Z,50.90
2019-04-07T03:35:00.075Z,50.60
2019-04-07T03:37:53.078Z,51.35
2019-04-07T03:40:44.671Z,50.57
2019-04-07T03:43:34.625Z,51.83
2019-04-07T03:46:18.388Z,50.52
2019-04-07T03:49:13.450Z,52.17
2019-04-07T03:52:05.696Z,52.13
2019-04-07T03:54:54.829Z,52.43
2019-04-07T03:57:35.309Z,52.27
2019-04-07T04:00:36.925Z,52.38
2019-04-07T04:03:19.322Z,52.95
2019-04-07T04:08:48.939Z,52.30
2019-04-07T04:11:43.719Z,52.13
2019-04-07T04:14:29.866Z,53.30
2019-04-07T04:16:59.287Z,53.28
2019-04-07T04:19:28.840Z,52.43
2019-04-07T04:21:58.857Z,53.38
2019-04-07T04:24:28.578Z,53.87
2019-04-07T04:26:59.150Z,54.75
2019-04-07T04:29:29.796Z,52.35
2019-04-07T04:31:59.734Z,52.65
2019-04-07T04:34:29.250Z,53.15
2019-04-07T04:36:59.830Z,53.52
2019-04-07T04:39:29.600Z,54.65
2019-04-07T04:41:59.935Z,54.95
2019-04-07T04:44:29.575Z,54.73
2019-04-07T04:47:02.526Z,53.47
2019-04-07T04:49:33.610Z,55.03
2019-04-07T04:52:05.152Z,53.40
2019-04-07T04:54:35.347Z,54.00
2019-04-07T04:57:07.873Z,55.55
2019-04-07T04:59:36.640Z,55.12
2019-04-07T05:02:07.963Z,56.45
2019-04-07T05:04:39.814Z,57.00
2019-04-07T05:07:10.185Z,56.53
2019-04-07T05:09:46.222Z,57.13
2019-04-07T05:12:11.636Z,42.62
2019-04-07T05:14:42.862Z,56.92
2019-04-07T05:17:15.280Z,57.45
2019-04-07T05:19:45.355Z,54.95
2019-04-07T05:22:15.272Z,56.58
2019-04-07T05:24:45.488Z,55.43
2019-04-07T05:27:14.939Z,57.33
2019-04-07T05:29:44.653Z,57.75
2019-04-07T05:32:14.564Z,56.70
2019-04-07T05:34:43.919Z,57.70
2019-04-07T05:37:14.093Z,57.43
2019-04-07T05:39:43.744Z,57.93
2019-04-07T05:42:13.482Z,56.88
2019-04-07T05:44:43.201Z,56.90
2019-04-07T05:47:14.407Z,60.60
2019-04-07T05:49:44.572Z,59.55
2019-04-07T05:52:17.308Z,60.20
2019-04-07T05:54:49.595Z,59.27
2019-04-07T05:57:18.608Z,59.08
2019-04-07T05:59:48.722Z,60.48
2019-04-07T06:02:18.870Z,58.78
2019-04-07T06:04:49.184Z,58.33
2019-04-07T06:07:19.126Z,59.10
2019-04-07T06:09:51.242Z,58.45
2019-04-07T06:12:20.355Z,56.03
2019-04-07T06:14:49.875Z,56.90
2019-04-07T06:17:19.465Z,56.95
2019-04-07T06:19:51.231Z,56.02
2019-04-07T06:22:21.019Z,54.93
2019-04-07T06:24:52.848Z,54.08
2019-04-07T06:27:22.819Z,55.52
2019-04-07T06:29:59.909Z,53.60
2019-04-07T06:32:28.278Z,55.20
2019-04-07T06:34:57.553Z,56.05
2019-04-07T06:37:29.381Z,52.25
2019-04-07T06:39:57.822Z,51.65
2019-04-07T06:42:31.550Z,52.55
2019-04-07T06:45:00.490Z,51.28
2019-04-07T06:47:33.584Z,52.23
2019-04-07T06:50:31.172Z,52.10
2019-04-07T06:53:25.876Z,50.90
2019-04-07T06:56:14.330Z,51.08
2019-04-07T06:58:59.246Z,49.75
2019-04-07T07:01:36.210Z,51.03
2019-04-07T07:04:24.346Z,50.17
2019-04-07T07:07:07.349Z,48.38
2019-04-07T07:10:00.124Z,47.13
2019-04-07T07:12:59.162Z,46.77
2019-04-07T07:15:49.888Z,47.60
2019-04-07T07:18:28.376Z,45.25
2019-04-07T07:21:05.128Z,45.45
2019-04-07T07:23:37.466Z,45.33
2019-04-07T07:26:08.121Z,45.92
2019-04-07T07:28:38.022Z,44.75
2019-04-07T07:31:07.812Z,42.15
2019-04-07T07:33:40.442Z,41.25
2019-04-07T07:36:08.185Z,40.33
2019-04-07T07:38:37.499Z,39.90
2019-04-07T07:41:06.785Z,39.30
2019-04-07T07:43:36.095Z,39.75
2019-04-07T07:46:05.628Z,38.60
2019-04-07T07:48:35.644Z,41.02
2019-04-07T07:51:07.138Z,38.17
2019-04-07T07:53:36.207Z,37.95
2019-04-07T07:56:10.591Z,39.23
2019-04-07T07:58:36.879Z,39.05
2019-04-07T08:01:06.368Z,39.60
2019-04-07T08:03:36.077Z,37.00
2019-04-07T08:06:08.223Z,36.80
2019-04-07T08:08:36.431Z,37.30
2019-04-07T08:11:05.857Z,36.65
2019-04-07T08:13:41.202Z,34.85
2019-04-07T08:16:06.423Z,34.95
2019-04-07T08:18:37.147Z,33.55
2019-04-07T08:21:07.260Z,33.10
2019-04-07T08:23:37.327Z,32.55
2019-04-07T08:26:09.436Z,31.85
2019-04-07T08:28:39.220Z,30.05
2019-04-07T08:31:08.572Z,29.15
2019-04-07T08:33:38.529Z,29.23
2019-04-07T08:36:11.168Z,27.50
2019-04-07T08:38:38.857Z,26.93
2019-04-07T08:41:10.569Z,26.75
2019-04-07T08:43:39.798Z,26.87
2019-04-07T08:46:09.928Z,25.40
2019-04-07T08:48:40.171Z,25.75
2019-04-07T08:51:10.101Z,26.35
2019-04-07T08:53:43.603Z,24.98
2019-04-07T08:56:10.892Z,24.10
2019-04-07T08:58:40.265Z,23.60
2019-04-07T09:01:09.782Z,23.42
2019-04-07T09:03:39.938Z,22.25
2019-04-07T09:06:09.708Z,21.15
2019-04-07T09:08:39.873Z,19.65
2019-04-07T09:11:15.770Z,17.50
2019-04-07T09:13:55.955Z,17.10
2019-04-07T09:16:39.321Z,16.80
2019-04-07T09:19:31.013Z,16.52
2019-04-07T09:22:25.299Z,16.45
2019-04-07T09:25:20.415Z,17.60
2019-04-07T09:28:03.164Z,14.60
2019-04-07T09:30:41.008Z,15.03
2019-04-07T09:33:29.787Z,15.93
2019-04-07T09:36:24.635Z,15.80
2019-04-07T09:39:16.614Z,16.30
2019-04-07T09:42:10.134Z,14.80
2019-04-07T09:44:46.776Z,14.40
2019-04-07T09:47:46.850Z,14.03
2019-04-07T09:50:33.218Z,14.43
2019-04-07T09:53:30.735Z,14.87
2019-04-07T09:56:21.825Z,14.40
2019-04-07T09:59:00.310Z,14.78
2019-04-07T10:02:06.303Z,14.30
2019-04-07T10:04:59.290Z,14.28
2019-04-07T10:07:40.255Z,14.93
2019-04-07T10:10:35.017Z,15.00
2019-04-07T10:13:26.496Z,14.65
2019-04-07T10:16:14.901Z,14.75
2019-04-07T10:19:13.000Z,14.55
2019-04-07T10:22:13.943Z,14.23
2019-04-07T10:25:02.471Z,14.60
2019-04-07T10:27:54.377Z,14.23
2019-04-07T10:30:34.942Z,14.93
2019-04-07T10:33:26.285Z,14.10
2019-04-07T10:36:13.721Z,14.13
2019-04-07T10:39:02.170Z,14.07
2019-04-07T10:41:42.806Z,13.13
2019-04-07T10:44:36.534Z,12.93
2019-04-07T10:47:25.605Z,12.30
2019-04-07T10:50:14.350Z,12.60
2019-04-07T10:53:02.685Z,12.45
2019-04-07T10:55:58.086Z,12.60
2019-04-07T10:58:41.412Z,13.05
2019-04-07T11:01:29.635Z,13.38
2019-04-07T11:04:24.016Z,12.28
2019-04-07T11:07:19.055Z,12.25
2019-04-07T11:10:05.140Z,12.60
2019-04-07T11:12:47.976Z,13.08
2019-04-07T11:18:33.747Z,13.05
2019-04-07T11:21:21.495Z,12.25
2019-04-07T11:24:01.617Z,13.05
2019-04-07T11:26:49.889Z,12.43
2019-04-07T11:29:29.564Z,12.85
2019-04-07T11:32:17.716Z,13.13
2019-04-07T11:34:55.595Z,12.95
2019-04-07T11:37:53.937Z,12.65
2019-04-07T11:40:45.244Z,13.13
2019-04-07T11:43:30.588Z,14.20
2019-04-07T11:46:24.267Z,13.28
2019-04-07T11:49:19.519Z,12.78
2019-04-07T11:52:00.017Z,13.05
2019-04-07T11:54:38.164Z,13.60
2019-04-07T11:57:13.671Z,12.90
2019-04-07T12:00:00.016Z,13.72
2019-04-07T12:02:55.396Z,12.60
2019-04-07T12:05:46.840Z,12.33
2019-04-07T12:08:38.684Z,13.45
2019-04-07T12:11:27.752Z,13.33
2019-04-07T12:14:09.121Z,13.58
2019-04-07T12:16:59.359Z,12.98
2019-04-07T12:19:54.907Z,13.18
2019-04-07T12:22:49.934Z,12.85
2019-04-07T12:25:37.329Z,13.60
2019-04-07T12:28:47.564Z,13.68
2019-04-07T12:31:29.356Z,14.23
2019-04-07T12:34:15.390Z,15.10
2019-04-07T12:37:22.012Z,13.88
2019-04-07T12:40:13.144Z,13.75
2019-04-07T12:43:19.481Z,13.50
2019-04-07T12:45:54.878Z,14.20
2019-04-07T12:48:32.409Z,13.70
2019-04-07T12:51:27.589Z,14.40
2019-04-07T12:54:19.006Z,13.78
2019-04-07T12:57:07.305Z,13.85
2019-04-07T12:59:50.157Z,14.28
2019-04-07T13:02:39.153Z,13.83
2019-04-07T13:05:21.360Z,14.58
2019-04-07T13:08:09.171Z,14.87
2019-04-07T13:11:04.840Z,13.53
2019-04-07T13:16:44.619Z,14.70
2019-04-07T13:19:35.571Z,14.23
2019-04-07T13:22:27.236Z,14.23
2019-04-07T13:25:13.091Z,14.47
2019-04-07T13:27:55.820Z,14.25
2019-04-07T13:30:32.615Z,14.00
2019-04-07T13:33:33.187Z,14.73
2019-04-07T13:36:21.475Z,14.98
2019-04-07T13:39:12.811Z,15.68
2019-04-07T13:42:02.115Z,14.95
2019-04-07T13:44:49.737Z,14.43
2019-04-07T13:47:31.989Z,15.53
2019-04-07T13:50:17.934Z,15.63
2019-04-07T13:53:12.470Z,15.03
2019-04-07T13:55:59.580Z,16.27
2019-04-07T13:58:39.004Z,14.18
2019-04-07T14:01:32.275Z,15.23
2019-04-07T14:04:23.101Z,15.35
2019-04-07T14:06:58.818Z,15.48
2019-04-07T14:09:50.695Z,16.27
2019-04-07T14:12:51.271Z,15.33
2019-04-07T14:15:38.408Z,15.40
2019-04-07T14:18:17.888Z,15.40
2019-04-07T14:21:12.240Z,15.95
2019-04-07T14:24:03.648Z,14.58
2019-04-07T14:27:04.366Z,14.85
2019-04-07T14:30:02.726Z,14.93
2019-04-07T14:32:50.738Z,14.98
2019-04-07T14:35:37.015Z,15.43
2019-04-07T14:38:33.236Z,15.32
2019-04-07T14:41:21.507Z,16.03
2019-04-07T14:43:56.530Z,16.07
2019-04-07T14:46:50.118Z,16.40
2019-04-07T14:49:37.915Z,16.85
2019-04-07T14:52:36.156Z,16.02
2019-04-07T14:55:54.504Z,15.72
2019-04-07T14:59:08.089Z,16.57
2019-04-07T15:01:54.013Z,16.23
2019-04-07T15:04:59.504Z,16.32
2019-04-07T15:07:52.805Z,17.32
2019-04-07T15:10:27.607Z,17.13
2019-04-07T15:13:01.891Z,16.48
2019-04-07T15:15:41.676Z,16.42
2019-04-07T15:18:11.639Z,16.70
2019-04-07T15:20:43.759Z,17.07
2019-04-07T15:23:25.499Z,16.37
2019-04-07T15:25:58.952Z,16.10
2019-04-07T15:28:49.291Z,15.18
2019-04-07T15:31:21.718Z,16.40
2019-04-07T15:34:08.661Z,16.07
2019-04-07T15:36:47.983Z,15.65
2019-04-07T15:39:44.749Z,16.73
2019-04-07T15:42:52.608Z,16.07
2019-04-07T15:45:33.362Z,15.00
2019-04-07T15:48:27.125Z,15.95
2019-04-07T15:51:13.287Z,15.38
2019-04-07T15:54:06.414Z,15.03
2019-04-07T15:56:35.775Z,15.13
2019-04-07T15:59:46.200Z,15.93
2019-04-07T16:02:16.041Z,15.20
2019-04-07T16:04:49.219Z,15.45
2019-04-07T16:07:23.070Z,16.60
2019-04-07T16:10:14.520Z,15.25
2019-04-07T16:13:08.896Z,16.25
2019-04-07T16:21:49.458Z,15.67
2019-04-07T16:24:53.879Z,16.23
2019-04-07T16:27:40.632Z,15.58
2019-04-07T16:35:02.538Z,15.53
2019-04-07T16:37:23.622Z,15.13
2019-04-07T16:40:18.509Z,15.40
2019-04-07T16:43:58.705Z,15.30
2019-04-07T16:46:28.252Z,15.85
2019-04-07T16:49:01.791Z,16.60
2019-04-07T16:51:33.646Z,15.98
2019-04-07T16:54:02.723Z,15.98
2019-04-07T16:56:32.331Z,15.58
2019-04-07T16:59:02.580Z,15.53
2019-04-07T17:01:31.971Z,16.50
2019-04-07T17:04:01.301Z,15.28
2019-04-07T17:06:34.716Z,15.93
2019-04-07T17:09:02.456Z,15.23
2019-04-07T17:11:32.313Z,15.70
2019-04-07T17:14:02.939Z,15.32
2019-04-07T17:16:33.439Z,16.03
2019-04-07T17:19:02.823Z,15.68
2019-04-07T17:21:32.893Z,15.98
2019-04-07T17:24:03.996Z,15.40
2019-04-07T17:26:37.428Z,15.40
2019-04-07T17:29:05.053Z,15.25
2019-04-07T17:31:34.801Z,15.88
2019-04-07T17:34:07.344Z,15.58
2019-04-07T17:36:48.426Z,15.73
2019-04-07T17:40:15.710Z,15.65
2019-04-07T17:42:45.910Z,15.15
2019-04-07T17:45:48.022Z,15.73
2019-04-07T17:48:37.348Z,15.43
2019-04-07T17:51:42.217Z,15.43
2019-04-07T17:54:29.189Z,15.68
2019-04-07T17:57:07.110Z,15.88
2019-04-07T17:59:55.291Z,16.20
2019-04-07T18:02:44.149Z,15.95
2019-04-07T18:05:42.005Z,15.60
2019-04-07T18:08:46.010Z,15.55
2019-04-07T18:11:35.022Z,16.00
2019-04-07T18:14:24.570Z,16.12
2019-04-07T18:17:08.663Z,17.23
2019-04-07T18:19:45.431Z,17.77
2019-04-07T18:22:42.466Z,17.80
2019-04-07T18:25:25.070Z,18.55
2019-04-07T18:28:03.276Z,18.20
2019-04-07T18:30:44.040Z,17.75
2019-04-07T18:33:21.307Z,18.17
2019-04-07T18:36:12.073Z,18.90
2019-04-07T18:39:04.479Z,19.87
2019-04-07T18:41:42.484Z,19.12
2019-04-07T18:44:35.236Z,21.15
2019-04-07T18:47:24.143Z,20.35
2019-04-07T18:50:20.226Z,20.23
2019-04-07T18:53:09.203Z,21.00
2019-04-07T18:55:57.954Z,21.33
2019-04-07T18:59:04.670Z,21.00
2019-04-07T19:02:01.793Z,21.85
2019-04-07T19:05:05.291Z,21.40
2019-04-07T19:07:52.866Z,21.27
2019-04-07T19:10:35.542Z,21.53
2019-04-07T19:13:30.064Z,21.37
2019-04-07T19:16:13.561Z,22.13
2019-04-07T19:19:05.164Z,23.05
2019-04-07T19:21:53.723Z,21.77
2019-04-07T19:25:05.181Z,22.45
2019-04-07T19:27:50.463Z,21.42
2019-04-07T19:30:38.909Z,23.40
2019-04-07T19:33:30.083Z,22.07
2019-04-07T19:36:24.399Z,22.25
2019-04-07T19:39:21.393Z,22.58
2019-04-07T19:42:14.840Z,22.35
2019-04-07T19:45:07.422Z,22.98
2019-04-07T19:48:05.401Z,22.35
2019-04-07T19:50:59.039Z,22.00
2019-04-07T19:53:43.173Z,22.98
2019-04-07T19:56:25.836Z,23.05
2019-04-07T19:59:12.841Z,22.87
2019-04-07T20:02:10.052Z,23.18
2019-04-07T20:05:01.553Z,23.35
2019-04-07T20:07:48.519Z,23.47
2019-04-07T20:10:35.860Z,23.37
2019-04-07T20:13:38.382Z,22.62
2019-04-07T20:16:16.349Z,22.00
2019-04-07T20:18:59.573Z,22.40
2019-04-07T20:21:54.783Z,23.32
2019-04-07T20:24:40.641Z,22.65
2019-04-07T20:27:29.755Z,23.18
2019-04-07T20:30:31.735Z,23.38
2019-04-07T20:33:21.014Z,23.05
2019-04-07T20:36:20.499Z,22.90
2019-04-07T20:39:00.534Z,22.73
2019-04-07T20:41:36.369Z,22.35
2019-04-07T20:44:30.830Z,22.62
2019-04-07T20:47:31.554Z,23.50
2019-04-07T20:50:23.767Z,23.30
2019-04-07T20:53:17.375Z,22.75
2019-04-07T20:55:54.963Z,23.42
2019-04-07T20:58:53.813Z,23.55
2019-04-07T21:01:25.603Z,23.57
2019-04-07T21:04:17.910Z,22.05
2019-04-07T21:07:16.437Z,23.75
2019-04-07T21:09:56.371Z,23.20
2019-04-07T21:12:47.182Z,24.50
2019-04-07T21:15:50.082Z,24.30
2019-04-07T21:18:31.750Z,23.85
2019-04-07T21:21:11.818Z,22.85
2019-04-07T21:23:46.204Z,22.85
2019-04-07T21:26:41.195Z,24.40
2019-04-07T21:29:20.369Z,23.62
2019-04-07T21:32:09.597Z,23.60
2019-04-07T21:34:53.607Z,24.57
2019-04-07T21:37:47.561Z,24.07
2019-04-07T21:40:28.590Z,23.40
2019-04-07T21:43:09.260Z,23.87
2019-04-07T21:46:09.977Z,24.43
2019-04-07T21:49:01.765Z,23.47
2019-04-07T21:51:46.601Z,24.37
2019-04-07T21:54:37.863Z,23.25
2019-04-07T21:57:37.998Z,23.87
2019-04-07T22:00:32.576Z,23.68
2019-04-07T22:03:21.241Z,23.55
2019-04-07T22:06:07.784Z,24.12
2019-04-07T22:08:47.840Z,23.15
2019-04-07T22:11:17.651Z,24.32
2019-04-07T22:13:47.142Z,23.55
2019-04-07T22:16:16.449Z,24.00
2019-04-07T22:18:45.721Z,24.92
2019-04-07T22:21:15.009Z,24.43
2019-04-07T22:23:44.381Z,24.75
2019-04-07T22:26:17.891Z,24.80
2019-04-07T22:28:44.983Z,24.75
2019-04-07T22:31:16.982Z,24.45
2019-04-07T22:33:46.627Z,24.98
2019-04-07T22:36:16.679Z,24.60
2019-04-07T22:38:46.085Z,25.30
2019-04-07T22:41:15.559Z,25.68
2019-04-07T22:43:47.834Z,25.70
2019-04-07T22:46:19.428Z,24.87
2019-04-07T22:48:46.780Z,24.18
2019-04-07T22:51:16.729Z,26.05
2019-04-07T22:53:46.093Z,26.48
2019-04-07T22:56:16.070Z,27.70
2019-04-07T22:58:45.407Z,25.77
2019-04-07T23:01:14.754Z,27.25
2019-04-07T23:03:43.995Z,27.30
2019-04-07T23:06:13.250Z,27.17
2019-04-07T23:08:43.255Z,27.10
2019-04-07T23:11:12.532Z,27.77
2019-04-07T23:13:42.028Z,27.70
2019-04-07T23:16:14.920Z,27.48
2019-04-07T23:18:42.440Z,26.42
2019-04-07T23:21:11.980Z,29.40
2019-04-07T23:23:41.978Z,28.42
2019-04-07T23:26:11.281Z,29.18
2019-04-07T23:28:40.728Z,28.20
2019-04-07T23:31:09.981Z,28.62
2019-04-07T23:33:39.352Z,29.15
2019-04-07T23:36:09.435Z,28.23
2019-04-07T23:38:39.096Z,28.40
2019-04-07T23:41:08.421Z,29.65
2019-04-07T23:43:37.699Z,29.18
2019-04-07T23:46:18.751Z,28.32
2019-04-07T23:48:38.144Z,29.75
2019-04-07T23:51:07.475Z,28.70
2019-04-07T23:54:08.699Z,28.95
2019-04-07T23:56:39.429Z,29.15
2019-04-07T23:59:08.991Z,29.87
